sensor_id;sensor_type;location;lat;lon;timestamp;temperature;humidity
7588;DHT22;3835;48.850;8.938;2022-09-12T00:00:41;11.80;99.90
7588;DHT22;3835;48.850;8.938;2022-09-12T00:03:08;11.70;99.90
7588;DHT22;3835;48.850;8.938;2022-09-12T00:05:40;11.70;99.90
7588;DHT22;3835;48.850;8.938;2022-09-12T00:08:07;11.70;99.90
7588;DHT22;3835;48.850;8.938;2022-09-12T00:10:36;11.70;99.90
7588;DHT22;3835;48.850;8.938;2022-09-12T00:13:04;11.70;99.90
7588;DHT22;3835;48.850;8.938;2022-09-12T00:15:31;11.60;99.90
7588;DHT22;3835;48.850;8.938;2022-09-12T00:17:59;11.60;99.90
7588;DHT22;3835;48.850;8.938;2022-09-12T00:20:26;11.60;99.90
7588;DHT22;3835;48.850;8.938;2022-09-12T00:22:52;11.60;99.90
7588;DHT22;3835;48.850;8.938;2022-09-12T00:25:19;11.60;99.90
7588;DHT22;3835;48.850;8.938;2022-09-12T00:27:46;11.60;99.90
7588;DHT22;3835;48.850;8.938;2022-09-12T00:30:13;11.60;99.90
7588;DHT22;3835;48.850;8.938;2022-09-12T00:32:40;11.60;99.90
7588;DHT22;3835;48.850;8.938;2022-09-12T00:35:08;11.50;99.90
7588;DHT22;3835;48.850;8.938;2022-09-12T00:37:35;11.60;99.90
7588;DHT22;3835;48.850;8.938;2022-09-12T00:40:02;11.60;99.90
7588;DHT22;3835;48.850;8.938;2022-09-12T00:42:28;11.70;99.90
7588;DHT22;3835;48.850;8.938;2022-09-12T00:44:55;11.80;99.90
7588;DHT22;3835;48.850;8.938;2022-09-12T00:47:25;11.80;99.90
7588;DHT22;3835;48.850;8.938;2022-09-12T00:49:57;11.90;99.90
7588;DHT22;3835;48.850;8.938;2022-09-12T00:52:29;11.90;99.90
7588;DHT22;3835;48.850;8.938;2022-09-12T00:55:01;11.90;99.90
7588;DHT22;3835;48.850;8.938;2022-09-12T00:57:31;11.90;99.90
7588;DHT22;3835;48.850;8.938;2022-09-12T01:00:06;11.90;99.90
7588;DHT22;3835;48.850;8.938;2022-09-12T01:02:35;11.90;99.90
7588;DHT22;3835;48.850;8.938;2022-09-12T01:05:02;11.90;99.90
7588;DHT22;3835;48.850;8.938;2022-09-12T01:07:34;11.90;99.90
7588;DHT22;3835;48.850;8.938;2022-09-12T01:10:01;11.90;99.90
7588;DHT22;3835;48.850;8.938;2022-09-12T01:12:28;11.80;99.90
7588;DHT22;3835;48.850;8.938;2022-09-12T01:14:55;11.80;99.90
7588;DHT22;3835;48.850;8.938;2022-09-12T01:17:24;11.70;99.90
7588;DHT22;3835;48.850;8.938;2022-09-12T01:23:23;11.70;99.90
7588;DHT22;3835;48.850;8.938;2022-09-12T01:26:14;11.70;99.90
7588;DHT22;3835;48.850;8.938;2022-09-12T01:28:59;11.80;99.90
7588;DHT22;3835;48.850;8.938;2022-09-12T01:31:33;11.80;99.90
7588;DHT22;3835;48.850;8.938;2022-09-12T01:34:09;11.80;99.90
7588;DHT22;3835;48.850;8.938;2022-09-12T01:36:45;11.80;99.90
7588;DHT22;3835;48.850;8.938;2022-09-12T01:39:22;11.70;99.90
7588;DHT22;3835;48.850;8.938;2022-09-12T01:41:58;11.70;99.90
7588;DHT22;3835;48.850;8.938;2022-09-12T01:44:34;11.60;99.90
7588;DHT22;3835;48.850;8.938;2022-09-12T01:47:06;11.60;99.90
7588;DHT22;3835;48.850;8.938;2022-09-12T01:49:39;11.60;99.90
7588;DHT22;3835;48.850;8.938;2022-09-12T01:52:11;11.60;99.90
7588;DHT22;3835;48.850;8.938;2022-09-12T01:54:44;11.50;99.90
7588;DHT22;3835;48.850;8.938;2022-09-12T01:57:16;11.50;99.90
7588;DHT22;3835;48.850;8.938;2022-09-12T01:59:47;11.50;99.90
7588;DHT22;3835;48.850;8.938;2022-09-12T02:02:20;11.50;99.90
7588;DHT22;3835;48.850;8.938;2022-09-12T02:04:51;11.60;99.90
7588;DHT22;3835;48.850;8.938;2022-09-12T02:07:22;11.60;99.90
7588;DHT22;3835;48.850;8.938;2022-09-12T02:09:54;11.60;99.90
7588;DHT22;3835;48.850;8.938;2022-09-12T02:12:24;11.60;99.90
7588;DHT22;3835;48.850;8.938;2022-09-12T02:14:56;11.50;99.90
7588;DHT22;3835;48.850;8.938;2022-09-12T02:17:25;11.50;99.90
7588;DHT22;3835;48.850;8.938;2022-09-12T02:19:56;11.50;99.90
7588;DHT22;3835;48.850;8.938;2022-09-12T02:22:26;11.40;99.90
7588;DHT22;3835;48.850;8.938;2022-09-12T02:24:56;11.40;99.90
7588;DHT22;3835;48.850;8.938;2022-09-12T02:27:27;11.40;99.90
7588;DHT22;3835;48.850;8.938;2022-09-12T02:29:56;11.40;99.90
7588;DHT22;3835;48.850;8.938;2022-09-12T02:32:29;11.40;99.90
7588;DHT22;3835;48.850;8.938;2022-09-12T02:35:02;11.40;99.90
7588;DHT22;3835;48.850;8.938;2022-09-12T02:37:40;11.40;99.90
7588;DHT22;3835;48.850;8.938;2022-09-12T02:40:10;11.30;99.90
7588;DHT22;3835;48.850;8.938;2022-09-12T02:42:37;11.30;99.90
7588;DHT22;3835;48.850;8.938;2022-09-12T02:45:05;11.30;99.90
7588;DHT22;3835;48.850;8.938;2022-09-12T02:47:36;11.20;99.90
7588;DHT22;3835;48.850;8.938;2022-09-12T02:50:05;11.10;99.90
7588;DHT22;3835;48.850;8.938;2022-09-12T02:52:33;11.10;99.90
7588;DHT22;3835;48.850;8.938;2022-09-12T02:55:01;11.10;99.90
7588;DHT22;3835;48.850;8.938;2022-09-12T02:57:29;11.10;99.90
7588;DHT22;3835;48.850;8.938;2022-09-12T02:59:59;11.10;99.90
7588;DHT22;3835;48.850;8.938;2022-09-12T03:02:34;11.10;99.90
7588;DHT22;3835;48.850;8.938;2022-09-12T03:05:17;11.00;99.90
7588;DHT22;3835;48.850;8.938;2022-09-12T03:08:00;11.10;99.90
7588;DHT22;3835;48.850;8.938;2022-09-12T03:10:37;11.00;99.90
7588;DHT22;3835;48.850;8.938;2022-09-12T03:13:17;11.00;99.90
7588;DHT22;3835;48.850;8.938;2022-09-12T03:15:53;11.00;99.90
7588;DHT22;3835;48.850;8.938;2022-09-12T03:18:31;10.90;99.90
7588;DHT22;3835;48.850;8.938;2022-09-12T03:21:12;10.90;99.90
7588;DHT22;3835;48.850;8.938;2022-09-12T03:23:45;10.80;99.90
7588;DHT22;3835;48.850;8.938;2022-09-12T03:26:20;10.80;99.90
7588;DHT22;3835;48.850;8.938;2022-09-12T03:28:49;10.80;99.90
7588;DHT22;3835;48.850;8.938;2022-09-12T03:31:18;10.80;99.90
7588;DHT22;3835;48.850;8.938;2022-09-12T03:33:47;10.80;99.90
7588;DHT22;3835;48.850;8.938;2022-09-12T03:36:15;10.80;99.90
7588;DHT22;3835;48.850;8.938;2022-09-12T03:38:44;10.70;99.90
7588;DHT22;3835;48.850;8.938;2022-09-12T03:41:10;10.70;99.90
7588;DHT22;3835;48.850;8.938;2022-09-12T03:43:37;10.70;99.90
7588;DHT22;3835;48.850;8.938;2022-09-12T03:46:04;10.80;99.90
7588;DHT22;3835;48.850;8.938;2022-09-12T03:48:31;10.80;99.90
7588;DHT22;3835;48.850;8.938;2022-09-12T03:51:03;10.80;99.90
7588;DHT22;3835;48.850;8.938;2022-09-12T03:53:31;10.80;99.90
7588;DHT22;3835;48.850;8.938;2022-09-12T03:55:58;10.90;99.90
7588;DHT22;3835;48.850;8.938;2022-09-12T03:58:28;10.90;99.90
7588;DHT22;3835;48.850;8.938;2022-09-12T04:00:56;10.90;99.90
7588;DHT22;3835;48.850;8.938;2022-09-12T04:03:22;10.80;99.90
7588;DHT22;3835;48.850;8.938;2022-09-12T04:05:49;10.80;99.90
7588;DHT22;3835;48.850;8.938;2022-09-12T04:08:17;10.80;99.90
7588;DHT22;3835;48.850;8.938;2022-09-12T04:10:44;10.80;99.90
7588;DHT22;3835;48.850;8.938;2022-09-12T04:13:11;10.70;99.90
7588;DHT22;3835;48.850;8.938;2022-09-12T04:15:37;10.80;99.90
7588;DHT22;3835;48.850;8.938;2022-09-12T04:18:04;10.70;99.90
7588;DHT22;3835;48.850;8.938;2022-09-12T04:20:31;10.80;99.90
7588;DHT22;3835;48.850;8.938;2022-09-12T04:22:58;10.80;99.90
7588;DHT22;3835;48.850;8.938;2022-09-12T04:25:26;10.80;99.90
7588;DHT22;3835;48.850;8.938;2022-09-12T04:27:52;10.80;99.90
7588;DHT22;3835;48.850;8.938;2022-09-12T04:30:19;10.80;99.90
7588;DHT22;3835;48.850;8.938;2022-09-12T04:32:46;10.70;99.90
7588;DHT22;3835;48.850;8.938;2022-09-12T04:35:13;10.70;99.90
7588;DHT22;3835;48.850;8.938;2022-09-12T04:37:40;10.70;99.90
7588;DHT22;3835;48.850;8.938;2022-09-12T04:40:07;10.70;99.90
7588;DHT22;3835;48.850;8.938;2022-09-12T04:42:35;10.70;99.90
7588;DHT22;3835;48.850;8.938;2022-09-12T04:45:02;10.70;99.90
7588;DHT22;3835;48.850;8.938;2022-09-12T04:47:30;10.60;99.90
7588;DHT22;3835;48.850;8.938;2022-09-12T04:49:57;10.60;99.90
7588;DHT22;3835;48.850;8.938;2022-09-12T04:52:24;10.60;99.90
7588;DHT22;3835;48.850;8.938;2022-09-12T04:54:51;10.70;99.90
7588;DHT22;3835;48.850;8.938;2022-09-12T04:57:17;10.70;99.90
7588;DHT22;3835;48.850;8.938;2022-09-12T04:59:46;10.70;99.90
7588;DHT22;3835;48.850;8.938;2022-09-12T05:02:12;10.70;99.90
7588;DHT22;3835;48.850;8.938;2022-09-12T05:04:39;10.70;99.90
7588;DHT22;3835;48.850;8.938;2022-09-12T05:07:06;10.80;99.90
7588;DHT22;3835;48.850;8.938;2022-09-12T05:09:32;10.80;99.90
7588;DHT22;3835;48.850;8.938;2022-09-12T05:11:59;10.80;99.90
7588;DHT22;3835;48.850;8.938;2022-09-12T05:14:26;10.90;99.90
7588;DHT22;3835;48.850;8.938;2022-09-12T05:16:54;10.90;99.90
7588;DHT22;3835;48.850;8.938;2022-09-12T05:19:24;11.00;99.90
7588;DHT22;3835;48.850;8.938;2022-09-12T05:21:51;11.10;99.90
7588;DHT22;3835;48.850;8.938;2022-09-12T05:24:17;11.20;99.90
7588;DHT22;3835;48.850;8.938;2022-09-12T05:26:44;11.40;99.90
7588;DHT22;3835;48.850;8.938;2022-09-12T05:29:11;11.40;99.90
7588;DHT22;3835;48.850;8.938;2022-09-12T05:31:38;11.40;99.90
7588;DHT22;3835;48.850;8.938;2022-09-12T05:34:07;11.30;99.90
7588;DHT22;3835;48.850;8.938;2022-09-12T05:36:35;11.30;99.90
7588;DHT22;3835;48.850;8.938;2022-09-12T05:39:03;11.30;99.90
7588;DHT22;3835;48.850;8.938;2022-09-12T05:41:31;11.40;99.90
7588;DHT22;3835;48.850;8.938;2022-09-12T05:44:00;11.40;99.90
7588;DHT22;3835;48.850;8.938;2022-09-12T05:46:28;11.50;99.90
7588;DHT22;3835;48.850;8.938;2022-09-12T05:49:02;11.50;99.90
7588;DHT22;3835;48.850;8.938;2022-09-12T05:51:33;11.70;99.90
7588;DHT22;3835;48.850;8.938;2022-09-12T05:54:01;11.80;99.90
7588;DHT22;3835;48.850;8.938;2022-09-12T05:56:30;11.90;99.90
7588;DHT22;3835;48.850;8.938;2022-09-12T05:58:58;12.10;99.90
7588;DHT22;3835;48.850;8.938;2022-09-12T06:01:27;12.20;99.90
7588;DHT22;3835;48.850;8.938;2022-09-12T06:03:56;12.30;99.90
7588;DHT22;3835;48.850;8.938;2022-09-12T06:06:25;12.50;99.90
7588;DHT22;3835;48.850;8.938;2022-09-12T06:08:56;12.60;99.90
7588;DHT22;3835;48.850;8.938;2022-09-12T06:11:25;12.70;99.90
7588;DHT22;3835;48.850;8.938;2022-09-12T06:13:53;12.90;99.90
7588;DHT22;3835;48.850;8.938;2022-09-12T06:16:22;13.00;99.90
7588;DHT22;3835;48.850;8.938;2022-09-12T06:18:51;13.00;99.90
7588;DHT22;3835;48.850;8.938;2022-09-12T06:21:19;13.10;99.90
7588;DHT22;3835;48.850;8.938;2022-09-12T06:23:46;13.30;99.90
7588;DHT22;3835;48.850;8.938;2022-09-12T06:26:16;13.40;99.90
7588;DHT22;3835;48.850;8.938;2022-09-12T06:28:46;13.60;99.90
7588;DHT22;3835;48.850;8.938;2022-09-12T06:31:15;13.70;99.90
7588;DHT22;3835;48.850;8.938;2022-09-12T06:33:43;13.90;99.90
7588;DHT22;3835;48.850;8.938;2022-09-12T06:36:12;14.00;99.90
7588;DHT22;3835;48.850;8.938;2022-09-12T06:38:39;14.20;99.90
7588;DHT22;3835;48.850;8.938;2022-09-12T06:41:08;14.40;99.90
7588;DHT22;3835;48.850;8.938;2022-09-12T06:43:38;14.50;99.90
7588;DHT22;3835;48.850;8.938;2022-09-12T06:46:05;14.60;99.90
7588;DHT22;3835;48.850;8.938;2022-09-12T06:48:32;14.70;99.90
7588;DHT22;3835;48.850;8.938;2022-09-12T06:51:00;15.00;99.90
7588;DHT22;3835;48.850;8.938;2022-09-12T06:53:28;15.10;99.90
7588;DHT22;3835;48.850;8.938;2022-09-12T06:55:56;15.30;99.90
7588;DHT22;3835;48.850;8.938;2022-09-12T06:58:23;15.50;99.90
7588;DHT22;3835;48.850;8.938;2022-09-12T07:00:51;15.50;99.90
7588;DHT22;3835;48.850;8.938;2022-09-12T07:03:18;15.60;99.90
7588;DHT22;3835;48.850;8.938;2022-09-12T07:05:45;15.80;99.90
7588;DHT22;3835;48.850;8.938;2022-09-12T07:08:12;15.90;99.90
7588;DHT22;3835;48.850;8.938;2022-09-12T07:10:39;16.10;99.90
7588;DHT22;3835;48.850;8.938;2022-09-12T07:13:05;16.20;99.90
7588;DHT22;3835;48.850;8.938;2022-09-12T07:15:34;16.30;99.90
7588;DHT22;3835;48.850;8.938;2022-09-12T07:18:02;16.50;99.90
7588;DHT22;3835;48.850;8.938;2022-09-12T07:20:29;16.50;99.90
7588;DHT22;3835;48.850;8.938;2022-09-12T07:22:57;16.60;99.90
7588;DHT22;3835;48.850;8.938;2022-09-12T07:25:24;16.80;99.90
7588;DHT22;3835;48.850;8.938;2022-09-12T07:27:51;16.90;99.90
7588;DHT22;3835;48.850;8.938;2022-09-12T07:30:18;17.00;99.90
7588;DHT22;3835;48.850;8.938;2022-09-12T07:32:45;17.00;99.90
7588;DHT22;3835;48.850;8.938;2022-09-12T07:35:13;17.20;99.90
7588;DHT22;3835;48.850;8.938;2022-09-12T07:37:40;17.30;99.90
7588;DHT22;3835;48.850;8.938;2022-09-12T07:40:07;17.40;99.90
7588;DHT22;3835;48.850;8.938;2022-09-12T07:42:34;17.60;99.90
7588;DHT22;3835;48.850;8.938;2022-09-12T07:45:01;17.70;99.90
7588;DHT22;3835;48.850;8.938;2022-09-12T07:47:28;17.80;99.90
7588;DHT22;3835;48.850;8.938;2022-09-12T07:49:54;17.90;99.90
7588;DHT22;3835;48.850;8.938;2022-09-12T07:52:23;18.00;99.90
7588;DHT22;3835;48.850;8.938;2022-09-12T07:54:50;18.00;99.90
7588;DHT22;3835;48.850;8.938;2022-09-12T07:57:17;18.10;99.90
7588;DHT22;3835;48.850;8.938;2022-09-12T07:59:43;18.20;99.90
7588;DHT22;3835;48.850;8.938;2022-09-12T08:02:11;18.30;99.90
7588;DHT22;3835;48.850;8.938;2022-09-12T08:04:38;18.40;99.90
7588;DHT22;3835;48.850;8.938;2022-09-12T08:07:06;18.40;99.90
7588;DHT22;3835;48.850;8.938;2022-09-12T08:09:35;18.40;99.90
7588;DHT22;3835;48.850;8.938;2022-09-12T08:12:01;18.60;99.90
7588;DHT22;3835;48.850;8.938;2022-09-12T08:14:28;18.60;99.90
7588;DHT22;3835;48.850;8.938;2022-09-12T08:16:55;18.70;99.90
7588;DHT22;3835;48.850;8.938;2022-09-12T08:19:22;18.80;99.90
7588;DHT22;3835;48.850;8.938;2022-09-12T08:21:49;18.80;99.90
7588;DHT22;3835;48.850;8.938;2022-09-12T08:24:16;18.80;99.90
7588;DHT22;3835;48.850;8.938;2022-09-12T08:26:44;18.90;99.90
7588;DHT22;3835;48.850;8.938;2022-09-12T08:29:11;19.00;99.90
7588;DHT22;3835;48.850;8.938;2022-09-12T08:31:38;18.90;99.90
7588;DHT22;3835;48.850;8.938;2022-09-12T08:34:07;18.90;99.90
7588;DHT22;3835;48.850;8.938;2022-09-12T08:36:34;19.00;99.90
7588;DHT22;3835;48.850;8.938;2022-09-12T08:39:04;19.10;99.90
7588;DHT22;3835;48.850;8.938;2022-09-12T08:41:34;19.00;99.90
7588;DHT22;3835;48.850;8.938;2022-09-12T08:44:33;19.20;99.90
7588;DHT22;3835;48.850;8.938;2022-09-12T08:47:20;19.30;99.90
7588;DHT22;3835;48.850;8.938;2022-09-12T08:49:53;19.30;99.90
7588;DHT22;3835;48.850;8.938;2022-09-12T08:52:26;19.40;99.90
7588;DHT22;3835;48.850;8.938;2022-09-12T08:54:55;19.50;99.90
7588;DHT22;3835;48.850;8.938;2022-09-12T08:57:22;19.60;99.90
7588;DHT22;3835;48.850;8.938;2022-09-12T08:59:51;19.50;99.90
7588;DHT22;3835;48.850;8.938;2022-09-12T09:02:51;19.50;99.90
7588;DHT22;3835;48.850;8.938;2022-09-12T09:05:24;19.50;99.90
7588;DHT22;3835;48.850;8.938;2022-09-12T09:08:15;19.50;99.90
7588;DHT22;3835;48.850;8.938;2022-09-12T09:10:47;19.60;99.90
7588;DHT22;3835;48.850;8.938;2022-09-12T09:13:25;19.70;99.90
7588;DHT22;3835;48.850;8.938;2022-09-12T09:16:16;19.80;99.90
7588;DHT22;3835;48.850;8.938;2022-09-12T09:18:48;19.80;99.90
7588;DHT22;3835;48.850;8.938;2022-09-12T09:21:21;19.80;99.90
7588;DHT22;3835;48.850;8.938;2022-09-12T09:23:52;19.80;99.90
7588;DHT22;3835;48.850;8.938;2022-09-12T09:26:24;19.90;99.90
7588;DHT22;3835;48.850;8.938;2022-09-12T09:28:56;20.00;99.90
7588;DHT22;3835;48.850;8.938;2022-09-12T09:31:29;20.20;99.90
7588;DHT22;3835;48.850;8.938;2022-09-12T09:33:58;20.20;99.90
7588;DHT22;3835;48.850;8.938;2022-09-12T09:36:37;20.40;99.90
7588;DHT22;3835;48.850;8.938;2022-09-12T09:39:13;20.40;99.90
7588;DHT22;3835;48.850;8.938;2022-09-12T09:41:49;20.40;99.90
7588;DHT22;3835;48.850;8.938;2022-09-12T09:44:22;20.60;99.90
7588;DHT22;3835;48.850;8.938;2022-09-12T09:46:53;20.80;99.90
7588;DHT22;3835;48.850;8.938;2022-09-12T09:49:21;20.90;99.90
7588;DHT22;3835;48.850;8.938;2022-09-12T09:51:48;20.90;99.90
7588;DHT22;3835;48.850;8.938;2022-09-12T09:54:19;20.90;99.90
7588;DHT22;3835;48.850;8.938;2022-09-12T09:56:48;20.90;99.90
7588;DHT22;3835;48.850;8.938;2022-09-12T09:59:17;20.70;99.90
7588;DHT22;3835;48.850;8.938;2022-09-12T10:01:46;20.70;99.90
7588;DHT22;3835;48.850;8.938;2022-09-12T10:04:19;20.70;99.90
7588;DHT22;3835;48.850;8.938;2022-09-12T10:06:47;20.70;99.90
7588;DHT22;3835;48.850;8.938;2022-09-12T10:09:19;20.90;99.90
7588;DHT22;3835;48.850;8.938;2022-09-12T10:11:47;21.10;99.90
7588;DHT22;3835;48.850;8.938;2022-09-12T10:14:30;21.20;99.90
7588;DHT22;3835;48.850;8.938;2022-09-12T10:16:58;21.40;99.90
7588;DHT22;3835;48.850;8.938;2022-09-12T10:19:34;21.50;99.90
7588;DHT22;3835;48.850;8.938;2022-09-12T10:22:02;21.50;99.90
7588;DHT22;3835;48.850;8.938;2022-09-12T10:24:32;21.60;99.90
7588;DHT22;3835;48.850;8.938;2022-09-12T10:27:07;21.50;99.90
7588;DHT22;3835;48.850;8.938;2022-09-12T10:29:39;21.60;99.90
7588;DHT22;3835;48.850;8.938;2022-09-12T10:32:09;21.80;99.90
7588;DHT22;3835;48.850;8.938;2022-09-12T10:34:42;21.90;99.90
7588;DHT22;3835;48.850;8.938;2022-09-12T10:37:17;21.70;99.90
7588;DHT22;3835;48.850;8.938;2022-09-12T10:39:50;21.80;99.90
7588;DHT22;3835;48.850;8.938;2022-09-12T10:42:41;21.90;99.90
7588;DHT22;3835;48.850;8.938;2022-09-12T10:45:18;21.90;99.90
7588;DHT22;3835;48.850;8.938;2022-09-12T10:47:45;21.90;99.90
7588;DHT22;3835;48.850;8.938;2022-09-12T10:50:26;22.00;99.90
7588;DHT22;3835;48.850;8.938;2022-09-12T10:52:54;22.30;99.90
7588;DHT22;3835;48.850;8.938;2022-09-12T10:55:25;22.30;99.90
7588;DHT22;3835;48.850;8.938;2022-09-12T10:58:12;22.10;99.90
7588;DHT22;3835;48.850;8.938;2022-09-12T11:00:43;22.20;99.90
7588;DHT22;3835;48.850;8.938;2022-09-12T11:03:15;22.20;99.90
7588;DHT22;3835;48.850;8.938;2022-09-12T11:05:57;22.20;99.90
7588;DHT22;3835;48.850;8.938;2022-09-12T11:08:47;22.30;99.90
7588;DHT22;3835;48.850;8.938;2022-09-12T11:11:30;22.10;99.90
7588;DHT22;3835;48.850;8.938;2022-09-12T11:14:12;22.10;99.90
7588;DHT22;3835;48.850;8.938;2022-09-12T11:16:48;22.20;99.90
7588;DHT22;3835;48.850;8.938;2022-09-12T11:19:42;22.10;99.90
7588;DHT22;3835;48.850;8.938;2022-09-12T11:22:57;22.20;99.90
7588;DHT22;3835;48.850;8.938;2022-09-12T11:25:29;22.20;99.90
7588;DHT22;3835;48.850;8.938;2022-09-12T11:28:13;22.10;99.90
7588;DHT22;3835;48.850;8.938;2022-09-12T11:30:54;22.10;99.90
7588;DHT22;3835;48.850;8.938;2022-09-12T11:33:33;22.10;99.90
7588;DHT22;3835;48.850;8.938;2022-09-12T11:36:05;21.90;99.90
7588;DHT22;3835;48.850;8.938;2022-09-12T11:38:46;21.90;99.90
7588;DHT22;3835;48.850;8.938;2022-09-12T11:41:19;21.90;99.90
7588;DHT22;3835;48.850;8.938;2022-09-12T11:43:53;22.20;99.90
7588;DHT22;3835;48.850;8.938;2022-09-12T11:46:28;22.20;99.90
7588;DHT22;3835;48.850;8.938;2022-09-12T11:49:00;22.30;99.90
7588;DHT22;3835;48.850;8.938;2022-09-12T11:51:34;22.60;99.90
7588;DHT22;3835;48.850;8.938;2022-09-12T11:54:11;22.70;99.90
7588;DHT22;3835;48.850;8.938;2022-09-12T11:56:42;22.70;99.90
7588;DHT22;3835;48.850;8.938;2022-09-12T11:59:16;22.60;99.90
7588;DHT22;3835;48.850;8.938;2022-09-12T12:01:46;22.50;99.90
7588;DHT22;3835;48.850;8.938;2022-09-12T12:04:20;22.50;99.90
7588;DHT22;3835;48.850;8.938;2022-09-12T12:06:54;22.50;98.90
7588;DHT22;3835;48.850;8.938;2022-09-12T12:09:24;22.30;99.90
7588;DHT22;3835;48.850;8.938;2022-09-12T12:11:53;22.20;99.90
7588;DHT22;3835;48.850;8.938;2022-09-12T12:14:25;22.10;99.90
7588;DHT22;3835;48.850;8.938;2022-09-12T12:16:56;22.10;99.90
7588;DHT22;3835;48.850;8.938;2022-09-12T12:19:34;22.20;99.90
7588;DHT22;3835;48.850;8.938;2022-09-12T12:22:06;22.20;99.90
7588;DHT22;3835;48.850;8.938;2022-09-12T12:28:01;22.20;99.90
7588;DHT22;3835;48.850;8.938;2022-09-12T12:30:58;22.10;99.90
7588;DHT22;3835;48.850;8.938;2022-09-12T12:33:51;22.10;99.90
7588;DHT22;3835;48.850;8.938;2022-09-12T12:36:38;22.00;99.90
7588;DHT22;3835;48.850;8.938;2022-09-12T12:46:03;21.90;99.70
7588;DHT22;3835;48.850;8.938;2022-09-12T12:48:46;21.90;98.30
7588;DHT22;3835;48.850;8.938;2022-09-12T12:51:29;22.00;98.90
7588;DHT22;3835;48.850;8.938;2022-09-12T12:53:58;22.10;96.30
7588;DHT22;3835;48.850;8.938;2022-09-12T12:56:34;22.20;96.90
7588;DHT22;3835;48.850;8.938;2022-09-12T12:59:14;22.10;95.80
7588;DHT22;3835;48.850;8.938;2022-09-12T13:01:46;22.00;95.90
7588;DHT22;3835;48.850;8.938;2022-09-12T13:04:16;22.00;95.70
7588;DHT22;3835;48.850;8.938;2022-09-12T13:06:45;22.00;96.50
7588;DHT22;3835;48.850;8.938;2022-09-12T13:09:21;22.10;99.20
7588;DHT22;3835;48.850;8.938;2022-09-12T13:11:58;22.10;98.40
7588;DHT22;3835;48.850;8.938;2022-09-12T13:14:49;22.10;97.50
7588;DHT22;3835;48.850;8.938;2022-09-12T13:17:33;22.20;97.40
7588;DHT22;3835;48.850;8.938;2022-09-12T13:20:05;22.30;97.00
7588;DHT22;3835;48.850;8.938;2022-09-12T13:22:38;22.40;96.70
7588;DHT22;3835;48.850;8.938;2022-09-12T13:25:34;22.60;96.60
7588;DHT22;3835;48.850;8.938;2022-09-12T13:28:04;22.60;96.40
7588;DHT22;3835;48.850;8.938;2022-09-12T13:30:33;22.60;96.60
7588;DHT22;3835;48.850;8.938;2022-09-12T13:33:10;22.60;95.50
7588;DHT22;3835;48.850;8.938;2022-09-12T13:35:49;22.50;96.10
7588;DHT22;3835;48.850;8.938;2022-09-12T13:38:27;22.60;97.40
7588;DHT22;3835;48.850;8.938;2022-09-12T13:41:12;22.40;95.40
7588;DHT22;3835;48.850;8.938;2022-09-12T13:43:43;22.30;96.10
7588;DHT22;3835;48.850;8.938;2022-09-12T13:46:14;22.30;95.60
7588;DHT22;3835;48.850;8.938;2022-09-12T13:48:43;22.40;95.70
7588;DHT22;3835;48.850;8.938;2022-09-12T13:51:21;22.30;97.40
7588;DHT22;3835;48.850;8.938;2022-09-12T13:53:50;22.40;96.70
7588;DHT22;3835;48.850;8.938;2022-09-12T13:56:18;22.40;94.50
7588;DHT22;3835;48.850;8.938;2022-09-12T13:58:56;22.40;95.50
7588;DHT22;3835;48.850;8.938;2022-09-12T14:01:34;22.40;96.40
7588;DHT22;3835;48.850;8.938;2022-09-12T14:04:13;22.60;96.50
7588;DHT22;3835;48.850;8.938;2022-09-12T14:06:59;22.60;94.50
7588;DHT22;3835;48.850;8.938;2022-09-12T14:09:29;22.60;95.20
7588;DHT22;3835;48.850;8.938;2022-09-12T14:11:58;22.50;94.10
7588;DHT22;3835;48.850;8.938;2022-09-12T14:14:28;22.40;94.00
7588;DHT22;3835;48.850;8.938;2022-09-12T14:16:56;22.50;94.70
7588;DHT22;3835;48.850;8.938;2022-09-12T14:19:25;22.60;95.30
7588;DHT22;3835;48.850;8.938;2022-09-12T14:21:54;22.60;94.50
7588;DHT22;3835;48.850;8.938;2022-09-12T14:24:21;22.60;96.10
7588;DHT22;3835;48.850;8.938;2022-09-12T14:26:50;22.50;96.10
7588;DHT22;3835;48.850;8.938;2022-09-12T14:29:18;22.40;95.70
7588;DHT22;3835;48.850;8.938;2022-09-12T14:31:46;22.40;95.60
7588;DHT22;3835;48.850;8.938;2022-09-12T14:34:14;22.60;94.80
7588;DHT22;3835;48.850;8.938;2022-09-12T14:36:47;22.60;95.50
7588;DHT22;3835;48.850;8.938;2022-09-12T14:39:19;22.70;96.50
7588;DHT22;3835;48.850;8.938;2022-09-12T14:41:48;22.70;94.90
7588;DHT22;3835;48.850;8.938;2022-09-12T14:44:17;22.60;94.00
7588;DHT22;3835;48.850;8.938;2022-09-12T14:46:45;22.70;96.20
7588;DHT22;3835;48.850;8.938;2022-09-12T14:49:15;22.60;94.90
7588;DHT22;3835;48.850;8.938;2022-09-12T14:51:52;22.60;94.20
7588;DHT22;3835;48.850;8.938;2022-09-12T14:54:38;22.60;93.50
7588;DHT22;3835;48.850;8.938;2022-09-12T14:57:31;22.60;93.60
7588;DHT22;3835;48.850;8.938;2022-09-12T15:00:14;22.60;93.70
7588;DHT22;3835;48.850;8.938;2022-09-12T15:02:43;22.70;93.10
7588;DHT22;3835;48.850;8.938;2022-09-12T15:05:22;22.60;92.60
7588;DHT22;3835;48.850;8.938;2022-09-12T15:07:56;22.60;92.70
7588;DHT22;3835;48.850;8.938;2022-09-12T15:10:26;22.60;92.70
7588;DHT22;3835;48.850;8.938;2022-09-12T15:13:16;22.60;94.20
7588;DHT22;3835;48.850;8.938;2022-09-12T15:15:45;22.60;94.50
7588;DHT22;3835;48.850;8.938;2022-09-12T15:18:13;22.50;93.50
7588;DHT22;3835;48.850;8.938;2022-09-12T15:20:42;22.50;92.60
7588;DHT22;3835;48.850;8.938;2022-09-12T15:23:19;22.60;93.30
7588;DHT22;3835;48.850;8.938;2022-09-12T15:25:47;22.50;94.00
7588;DHT22;3835;48.850;8.938;2022-09-12T15:28:17;22.50;93.50
7588;DHT22;3835;48.850;8.938;2022-09-12T15:30:46;22.40;91.40
7588;DHT22;3835;48.850;8.938;2022-09-12T15:33:14;22.40;93.00
7588;DHT22;3835;48.850;8.938;2022-09-12T15:35:41;22.30;92.30
7588;DHT22;3835;48.850;8.938;2022-09-12T15:38:07;22.40;92.50
7588;DHT22;3835;48.850;8.938;2022-09-12T15:40:36;22.40;92.50
7588;DHT22;3835;48.850;8.938;2022-09-12T15:43:03;22.40;91.80
7588;DHT22;3835;48.850;8.938;2022-09-12T15:45:30;22.40;92.70
7588;DHT22;3835;48.850;8.938;2022-09-12T15:47:58;22.30;92.20
7588;DHT22;3835;48.850;8.938;2022-09-12T15:50:25;22.20;93.30
7588;DHT22;3835;48.850;8.938;2022-09-12T15:52:52;22.00;93.00
7588;DHT22;3835;48.850;8.938;2022-09-12T15:55:22;21.90;93.30
7588;DHT22;3835;48.850;8.938;2022-09-12T15:57:50;21.80;93.90
7588;DHT22;3835;48.850;8.938;2022-09-12T16:00:18;21.80;94.10
7588;DHT22;3835;48.850;8.938;2022-09-12T16:02:46;21.70;93.30
7588;DHT22;3835;48.850;8.938;2022-09-12T16:05:15;21.70;92.90
7588;DHT22;3835;48.850;8.938;2022-09-12T16:07:43;21.80;92.30
7588;DHT22;3835;48.850;8.938;2022-09-12T16:10:13;21.90;93.00
7588;DHT22;3835;48.850;8.938;2022-09-12T16:12:41;21.70;92.80
7588;DHT22;3835;48.850;8.938;2022-09-12T16:15:15;21.80;93.30
7588;DHT22;3835;48.850;8.938;2022-09-12T16:17:42;21.60;94.60
7588;DHT22;3835;48.850;8.938;2022-09-12T16:20:10;21.60;92.10
7588;DHT22;3835;48.850;8.938;2022-09-12T16:22:37;21.60;93.00
7588;DHT22;3835;48.850;8.938;2022-09-12T16:25:05;21.50;93.10
7588;DHT22;3835;48.850;8.938;2022-09-12T16:27:32;21.40;92.80
7588;DHT22;3835;48.850;8.938;2022-09-12T16:29:59;21.20;93.40
7588;DHT22;3835;48.850;8.938;2022-09-12T16:32:27;21.10;93.50
7588;DHT22;3835;48.850;8.938;2022-09-12T16:34:54;20.90;93.50
7588;DHT22;3835;48.850;8.938;2022-09-12T16:37:21;20.90;93.90
7588;DHT22;3835;48.850;8.938;2022-09-12T16:39:48;20.70;93.80
7588;DHT22;3835;48.850;8.938;2022-09-12T16:42:15;20.60;93.50